Time;durP1;ratioP1;P1;durP2;ratioP2;P2;SDS_P1;SDS_P2;PMS_P1;PMS_P2;Temp;Humidity;BMP_temperature;BMP_pressure;BME280_temperature;BME280_humidity;BME280_pressure;Samples;Min_cycle;Max_cycle;Signal;HPM_P1;HPM_P2
2022/06/28 00:00:56;;;;;;;3.08;1.20;;;;;;;15.39;79.15;99137.53;4139558;28;20201;-58
2022/06/28 00:02:58;;;;;;;1.27;0.90;;;;;;;15.38;79.29;99141.41;4139808;28;20267;-58
2022/06/28 00:05:00;;;;;;;0.80;0.80;;;;;;;15.36;79.19;99132.53;4139698;28;20209;-58
2022/06/28 00:07:02;;;;;;;3.25;0.90;;;;;;;15.32;79.04;99134.19;4151919;28;20223;-58
2022/06/28 00:09:04;;;;;;;1.20;1.10;;;;;;;15.29;78.70;99133.84;4132211;28;20651;-58
2022/06/28 00:11:06;;;;;;;1.20;1.10;;;;;;;15.25;79.14;99136.31;4119097;28;20212;-58
2022/06/28 00:13:08;;;;;;;1.30;1.10;;;;;;;15.22;79.06;99141.50;4150261;28;20204;-58
2022/06/28 00:17:32;;;;;;;3.30;0.90;;;;;;;15.10;79.40;99133.41;4134636;28;20205;-58
2022/06/28 00:19:34;;;;;;;1.63;1.02;;;;;;;15.12;79.57;99136.75;4140833;28;20222;-58
2022/06/28 00:21:36;;;;;;;1.23;1.13;;;;;;;15.10;79.70;99133.41;4151799;28;20660;-58
2022/06/28 00:23:39;;;;;;;0.93;0.93;;;;;;;15.08;79.69;99132.84;4119700;28;20210;-58
2022/06/28 00:25:41;;;;;;;1.20;1.10;;;;;;;15.04;79.56;99131.69;4151168;28;20705;-58
2022/06/28 00:27:43;;;;;;;4.38;1.20;;;;;;;15.02;79.29;99136.66;4132292;28;20217;-58
2022/06/28 00:29:45;;;;;;;1.05;0.85;;;;;;;15.01;79.24;99131.41;4138546;28;20206;-58
2022/06/28 00:31:47;;;;;;;0.93;0.93;;;;;;;14.99;79.12;99137.19;4138261;28;20232;-58
2022/06/28 00:33:49;;;;;;;1.15;1.00;;;;;;;14.98;79.22;99135.53;4121936;28;20214;-58
2022/06/28 00:35:51;;;;;;;4.10;1.20;;;;;;;14.99;79.21;99131.69;4120769;28;20237;-57
2022/06/28 00:37:53;;;;;;;3.30;1.10;;;;;;;15.00;79.04;99135.25;4138790;28;20269;-58
2022/06/28 00:39:55;;;;;;;3.92;1.70;;;;;;;14.97;78.83;99133.84;4132759;28;20201;-58
2022/06/28 00:41:56;;;;;;;5.00;1.10;;;;;;;14.95;79.07;99144.31;4136457;28;20210;-58
2022/06/28 00:43:59;;;;;;;2.15;1.00;;;;;;;14.91;79.02;99142.34;4118600;28;20655;-58
2022/06/28 00:46:02;;;;;;;0.98;0.98;;;;;;;14.91;79.00;99136.84;4135449;28;20205;-58
2022/06/28 00:48:05;;;;;;;1.05;1.05;;;;;;;14.88;78.86;99146.47;4135006;28;20487;-59
2022/06/28 00:50:07;;;;;;;2.88;1.08;;;;;;;14.87;78.74;99143.97;4119721;28;20210;-58
2022/06/28 00:52:10;;;;;;;2.35;1.02;;;;;;;14.83;78.81;99140.91;4132987;28;20662;-58
2022/06/28 00:54:12;;;;;;;2.13;1.10;;;;;;;14.80;78.75;99135.94;4126601;28;20218;-58
2022/06/28 00:56:14;;;;;;;1.60;1.30;;;;;;;14.76;78.96;99131.22;4134930;28;20225;-58
2022/06/28 00:58:16;;;;;;;1.77;1.05;;;;;;;14.75;79.02;99135.03;4134978;28;20304;-58
2022/06/28 01:00:18;;;;;;;1.70;0.90;;;;;;;14.73;78.85;99135.31;4137622;28;20209;-58
2022/06/28 01:02:20;;;;;;;1.30;1.20;;;;;;;14.71;79.26;99128.41;4133403;28;20217;-58
2022/06/28 01:04:22;;;;;;;1.05;1.05;;;;;;;14.67;78.89;99133.59;4136453;28;20210;-57
2022/06/28 01:06:23;;;;;;;1.23;1.08;;;;;;;14.65;79.04;99135.78;4136788;28;20728;-57
2022/06/28 01:08:25;;;;;;;1.50;1.10;;;;;;;14.62;79.01;99141.81;4136171;28;20230;-57
2022/06/28 01:10:27;;;;;;;0.73;0.73;;;;;;;14.59;79.10;99131.31;4158027;28;20216;-58
2022/06/28 01:12:29;;;;;;;1.98;1.20;;;;;;;14.54;79.28;99131.28;4137025;28;20221;-58
2022/06/28 01:14:31;;;;;;;1.80;1.27;;;;;;;14.50;79.49;99132.88;4138822;28;20217;-58
2022/06/28 01:16:33;;;;;;;1.33;1.10;;;;;;;14.49;79.80;99131.22;4140041;28;20283;-58
2022/06/28 01:18:35;;;;;;;1.40;1.30;;;;;;;14.45;79.86;99132.84;4137626;28;20232;-56
2022/06/28 01:20:40;;;;;;;1.13;1.00;;;;;;;14.40;79.88;99127.28;4120382;28;20222;-57
2022/06/28 01:22:42;;;;;;;1.02;1.02;;;;;;;14.38;80.19;99134.94;4137927;28;20213;-57
2022/06/28 01:24:44;;;;;;;2.00;1.17;;;;;;;14.37;80.06;99138.78;4123774;28;20241;-58
2022/06/28 01:26:47;;;;;;;1.02;1.02;;;;;;;14.43;80.08;99128.69;4135221;28;20218;-58
2022/06/28 01:28:50;;;;;;;1.83;1.42;;;;;;;14.37;80.21;99130.53;4135692;28;20647;-58
2022/06/28 01:30:52;;;;;;;3.95;1.50;;;;;;;14.34;80.20;99136.56;4138923;28;20235;-58
2022/06/28 01:32:54;;;;;;;1.30;1.20;;;;;;;14.30;80.26;99132.66;4124216;28;20217;-58
2022/06/28 01:34:56;;;;;;;4.03;1.20;;;;;;;14.28;79.76;99145.84;4136398;28;20681;-57
2022/06/28 01:36:58;;;;;;;1.08;1.08;;;;;;;14.25;79.92;99143.63;4137429;28;20680;-58
2022/06/28 01:39:02;;;;;;;3.47;2.45;;;;;;;14.23;79.84;99137.53;4122513;28;20238;-58
2022/06/28 01:41:04;;;;;;;1.90;1.33;;;;;;;14.20;80.20;99142.72;4136657;28;20213;-58
2022/06/28 01:43:13;;;;;;;1.33;1.15;;;;;;;14.13;80.13;99134.66;4134869;28;20244;-58
2022/06/28 01:45:15;;;;;;;1.40;1.30;;;;;;;14.12;80.81;99130.25;4138843;28;20249;-58
2022/06/28 01:47:18;;;;;;;1.52;1.00;;;;;;;14.11;80.99;99123.03;4145170;28;20209;-58
2022/06/28 01:49:20;;;;;;;1.63;1.45;;;;;;;14.12;80.68;99124.72;4141814;28;20819;-58
2022/06/28 01:51:22;;;;;;;4.25;1.42;;;;;;;14.12;80.37;99130.25;4156615;28;20247;-58
2022/06/28 01:53:24;;;;;;;2.45;1.25;;;;;;;14.11;80.30;99128.53;4151055;28;20266;-58
2022/06/28 01:55:26;;;;;;;1.75;1.65;;;;;;;14.08;80.03;99123.56;4138854;28;20283;-58
2022/06/28 01:57:28;;;;;;;1.70;1.60;;;;;;;14.06;80.02;99124.91;4136733;28;20631;-58
2022/06/28 01:59:30;;;;;;;1.15;0.95;;;;;;;14.02;80.41;99134.75;4140433;28;20643;-58
2022/06/28 02:01:32;;;;;;;1.30;1.20;;;;;;;14.04;80.45;99127.09;4135259;28;20213;-58
2022/06/28 02:03:34;;;;;;;1.38;1.27;;;;;;;14.01;80.32;99125.69;4153209;28;20208;-58
2022/06/28 02:05:36;;;;;;;3.60;1.40;;;;;;;13.99;80.55;99130.63;4124210;28;20199;-58
2022/06/28 02:07:46;;;;;;;1.48;1.33;;;;;;;13.97;80.32;99134.72;4132295;28;20206;-58
2022/06/28 02:09:47;;;;;;;1.48;1.38;;;;;;;13.96;80.20;99147.63;4133880;28;20776;-58
2022/06/28 02:11:49;;;;;;;1.45;1.27;;;;;;;13.92;80.12;99146.50;4136636;28;20662;-58
2022/06/28 02:13:51;;;;;;;1.75;1.63;;;;;;;13.90;79.88;99142.34;4138246;28;20574;-58
2022/06/28 02:15:53;;;;;;;1.25;1.15;;;;;;;13.88;79.88;99150.84;4152289;28;20666;-58
2022/06/28 02:18:01;;;;;;;1.77;1.10;;;;;;;13.86;79.80;99144.78;4149152;28;20651;-58
2022/06/28 02:20:03;;;;;;;1.33;1.23;;;;;;;13.85;79.61;99148.63;4151665;28;20208;-58
2022/06/28 02:22:05;;;;;;;1.10;1.00;;;;;;;13.87;79.73;99157.44;4133886;28;20221;-58
2022/06/28 02:24:09;;;;;;;1.63;1.10;;;;;;;13.85;79.43;99148.63;4141071;28;20743;-58
2022/06/28 02:26:11;;;;;;;1.20;1.10;;;;;;;13.81;79.45;99144.69;4151088;28;20298;-60
2022/06/28 02:28:13;;;;;;;1.20;1.10;;;;;;;13.77;79.68;99140.78;4136058;28;20416;-58
2022/06/28 02:30:15;;;;;;;3.38;1.13;;;;;;;13.76;79.46;99141.06;4125518;28;20270;-58
2022/06/28 02:32:17;;;;;;;1.85;1.20;;;;;;;13.73;79.54;99142.41;4139069;28;20279;-58
2022/06/28 02:41:22;;;;;;;1.00;1.00;;;;;;;13.68;79.45;99156.06;4137960;28;20213;-58
2022/06/28 02:43:24;;;;;;;3.40;1.10;;;;;;;13.68;79.16;99156.06;4136282;28;20712;-58
2022/06/28 02:45:28;;;;;;;0.93;0.90;;;;;;;13.65;79.23;99155.75;4137020;28;20760;-60
2022/06/28 02:47:30;;;;;;;4.88;1.20;;;;;;;13.64;78.96;99154.91;4157248;28;20340;-57
2022/06/28 02:49:32;;;;;;;1.60;1.08;;;;;;;13.63;79.75;99158.75;4139153;28;20225;-58
2022/06/28 02:51:33;;;;;;;1.33;1.13;;;;;;;13.61;79.36;99155.44;4133749;28;20209;-57
2022/06/28 02:53:37;;;;;;;1.05;1.05;;;;;;;13.61;79.04;99152.69;4135976;28;20205;-57
2022/06/28 02:55:38;;;;;;;2.47;1.17;;;;;;;13.58;79.35;99155.09;4134571;28;20260;-58
2022/06/28 02:57:41;;;;;;;2.55;0.95;;;;;;;13.53;79.13;99164.13;4134656;28;20221;-57
2022/06/28 02:59:43;;;;;;;1.10;1.00;;;;;;;13.50;79.10;99161.06;4133114;28;20521;-58
2022/06/28 03:01:44;;;;;;;2.47;1.27;;;;;;;13.44;79.35;99165.63;4119938;28;20273;-57
2022/06/28 03:03:46;;;;;;;1.63;0.95;;;;;;;13.38;79.67;99169.38;4154199;28;20695;-59
2022/06/28 03:05:48;;;;;;;1.38;1.02;;;;;;;13.32;79.33;99170.41;4136682;28;20260;-56
2022/06/28 03:07:50;;;;;;;1.30;1.20;;;;;;;13.30;79.56;99178.06;4149827;28;20282;-59
2022/06/28 03:09:52;;;;;;;1.13;0.95;;;;;;;13.30;79.55;99175.31;4150295;28;20336;-57
2022/06/28 03:11:54;;;;;;;1.75;1.27;;;;;;;13.29;79.71;99179.13;4138041;28;20626;-56
2022/06/28 03:13:56;;;;;;;1.25;1.15;;;;;;;13.30;79.66;99180.00;4135406;28;20201;-59
2022/06/28 03:15:57;;;;;;;1.75;1.23;;;;;;;13.30;79.59;99180.81;4135385;28;20233;-59
2022/06/28 03:17:59;;;;;;;1.20;1.20;;;;;;;13.31;79.83;99182.47;4136626;28;20746;-57
2022/06/28 03:20:01;;;;;;;1.52;1.42;;;;;;;13.33;79.72;99179.47;4133687;28;20284;-57
2022/06/28 03:22:03;;;;;;;1.02;1.02;;;;;;;13.32;79.58;99184.16;4134144;28;20747;-60
2022/06/28 03:24:06;;;;;;;1.48;1.17;;;;;;;13.33;79.37;99185.81;4136686;28;20236;-60
2022/06/28 03:26:08;;;;;;;1.77;0.85;;;;;;;13.33;79.48;99194.06;4123112;28;20546;-59
2022/06/28 03:28:09;;;;;;;1.30;1.20;;;;;;;13.29;79.12;99190.13;4132339;28;20229;-60
2022/06/28 03:30:11;;;;;;;2.35;1.10;;;;;;;13.26;79.04;99193.41;4133630;28;20224;-60
2022/06/28 03:32:13;;;;;;;4.05;1.08;;;;;;;13.26;79.00;99201.66;4132466;28;20256;-59
2022/06/28 03:34:16;;;;;;;1.00;1.00;;;;;;;13.26;79.17;99201.66;4130709;28;20216;-56
2022/06/28 03:36:18;;;;;;;1.95;1.42;;;;;;;13.26;78.95;99207.16;4134661;28;20311;-60
2022/06/28 03:38:20;;;;;;;2.65;1.27;;;;;;;13.22;79.13;99205.97;4133820;28;20221;-57
2022/06/28 03:40:22;;;;;;;5.15;1.15;;;;;;;13.16;79.70;99206.16;4133941;28;20213;-60
2022/06/28 03:42:24;;;;;;;1.70;1.10;;;;;;;13.13;79.65;99210.22;4130796;28;20236;-60
2022/06/28 03:44:26;;;;;;;1.23;1.15;;;;;;;13.22;79.54;99211.47;4134891;28;20307;-59
2022/06/28 03:46:28;;;;;;;1.13;1.10;;;;;;;13.16;79.64;99212.47;4136016;28;20256;-59
2022/06/28 03:48:30;;;;;;;1.83;1.25;;;;;;;13.15;80.13;99210.81;4131820;28;20760;-60
2022/06/28 03:50:32;;;;;;;7.20;1.55;;;;;;;13.12;80.28;99213.22;4152511;28;20212;-60
2022/06/28 03:52:34;;;;;;;1.48;1.30;;;;;;;13.01;80.71;99219.59;4138896;28;20217;-60
2022/06/28 03:54:36;;;;;;;1.60;1.15;;;;;;;13.05;80.60;99207.88;4133768;28;20209;-59
2022/06/28 03:56:37;;;;;;;3.85;1.30;;;;;;;13.05;80.60;99210.63;4131543;28;20707;-59
2022/06/28 03:58:39;;;;;;;1.20;1.10;;;;;;;13.09;80.25;99214.53;4148987;28;20747;-60
2022/06/28 04:00:41;;;;;;;1.20;1.10;;;;;;;13.09;80.56;99210.97;4129649;28;20288;-60
2022/06/28 04:02:43;;;;;;;2.72;1.40;;;;;;;13.05;80.67;99215.28;4137624;28;20252;-60
2022/06/28 04:04:45;;;;;;;3.38;1.05;;;;;;;13.04;80.90;99222.69;4135758;28;20205;-57
2022/06/28 04:06:46;;;;;;;1.10;1.00;;;;;;;13.03;80.57;99212.78;4134382;28;20254;-57
2022/06/28 04:08:48;;;;;;;1.35;1.25;;;;;;;13.04;80.60;99217.19;4151061;28;20254;-60
2022/06/28 04:11:13;;;;;;;1.55;1.13;;;;;;;13.05;80.70;99221.59;4135665;28;20267;-57
2022/06/28 04:13:12;;;;;;;1.92;1.33;;;;;;;13.10;80.29;99235.44;4136789;28;20267;-60
2022/06/28 04:15:13;;;;;;;1.98;1.10;;;;;;;13.12;80.41;99226.97;4133368;28;20241;-60
2022/06/28 04:17:18;;;;;;;2.45;1.42;;;;;;;13.10;80.58;99235.44;4135028;28;20314;-59
2022/06/28 04:19:20;;;;;;;1.60;1.30;;;;;;;13.14;80.66;99225.63;4141730;28;20229;-59
2022/06/28 04:21:22;;;;;;;2.85;1.30;;;;;;;13.15;80.75;99226.44;4121351;28;20681;-58
2022/06/28 04:23:23;;;;;;;1.48;1.20;;;;;;;13.18;80.84;99226.78;4117353;28;20206;-59
2022/06/28 04:25:25;;;;;;;1.58;1.48;;;;;;;13.15;81.35;99226.44;4150409;28;20220;-60
2022/06/28 04:27:27;;;;;;;2.03;1.40;;;;;;;13.17;81.07;99227.03;4124443;28;20298;-58
2022/06/28 04:29:29;;;;;;;1.15;1.05;;;;;;;13.21;80.97;99220.81;4128168;28;20232;-60
2022/06/28 04:31:31;;;;;;;2.10;1.27;;;;;;;13.25;80.94;99224.69;4152326;28;20216;-60
2022/06/28 04:33:33;;;;;;;3.05;1.50;;;;;;;13.27;81.11;99213.47;4154852;28;20557;-60
2022/06/28 04:35:35;;;;;;;1.92;1.40;;;;;;;13.29;80.77;99214.88;4158335;28;21071;-60
2022/06/28 04:37:36;;;;;;;1.30;1.20;;;;;;;13.33;80.90;99210.56;4139741;28;20229;-60
2022/06/28 04:39:38;;;;;;;1.38;1.27;;;;;;;13.38;80.69;99210.63;4142102;28;20850;-60
2022/06/28 04:41:40;;;;;;;1.40;1.30;;;;;;;13.42;80.61;99217.28;4126099;28;20213;-59
2022/06/28 04:43:42;;;;;;;1.88;1.65;;;;;;;13.46;80.89;99212.97;4152491;28;20691;-60
2022/06/28 04:45:43;;;;;;;2.78;1.67;;;;;;;13.50;80.72;99219.59;4121585;28;20277;-59
2022/06/28 04:47:45;;;;;;;3.50;1.30;;;;;;;13.55;80.68;99213.34;4142187;28;20657;-60
2022/06/28 04:49:47;;;;;;;2.08;1.42;;;;;;;13.59;80.90;99217.28;4138252;28;20713;-60
2022/06/28 04:51:49;;;;;;;1.20;1.20;;;;;;;13.64;81.00;99215.41;4141708;28;20206;-60
2022/06/28 04:53:50;;;;;;;1.58;1.48;;;;;;;13.65;80.79;99219.84;4123465;28;20210;-58
2022/06/28 04:55:52;;;;;;;1.38;1.20;;;;;;;13.69;80.84;99221.00;4138594;28;20213;-59
2022/06/28 04:57:54;;;;;;;2.08;1.35;;;;;;;13.71;80.97;99227.06;4134217;28;20612;-60
2022/06/28 04:59:56;;;;;;;2.65;1.10;;;;;;;13.74;81.00;99214.75;4133520;28;20213;-60
2022/06/28 05:01:59;;;;;;;2.75;1.35;;;;;;;13.76;80.76;99212.59;4136469;28;20268;-59
2022/06/28 05:04:03;;;;;;;1.83;1.50;;;;;;;13.81;80.98;99205.22;4135685;28;20221;-60
2022/06/28 05:06:07;;;;;;;5.03;1.70;;;;;;;13.88;80.90;99210.53;4140960;28;20209;-58
2022/06/28 05:08:15;;;;;;;1.42;1.33;;;;;;;13.89;81.02;99218.53;4140806;28;20229;-58
2022/06/28 05:10:18;;;;;;;2.13;1.45;;;;;;;13.92;81.11;99217.19;4126288;28;20232;-58
2022/06/28 05:12:20;;;;;;;2.95;2.08;;;;;;;13.96;81.09;99224.69;4133819;28;20214;-58
2022/06/28 05:14:24;;;;;;;2.20;1.63;;;;;;;14.00;81.25;99225.84;4138564;28;20215;-58
2022/06/28 05:16:26;;;;;;;2.05;1.58;;;;;;;14.08;81.69;99221.81;4138048;28;20233;-59
2022/06/28 05:18:28;;;;;;;4.30;1.60;;;;;;;14.14;81.75;99212.53;4134713;28;20233;-59
2022/06/28 05:20:33;;;;;;;3.67;1.73;;;;;;;14.17;81.73;99221.13;4144142;28;20340;-59
2022/06/28 05:22:35;;;;;;;7.25;1.23;;;;;;;14.20;81.78;99212.41;4164535;28;20208;-59
2022/06/28 05:24:41;;;;;;;4.53;1.60;;;;;;;14.24;81.73;99205.25;4161300;28;20204;-59
2022/06/28 05:26:43;;;;;;;2.22;1.40;;;;;;;14.27;81.93;99215.78;4144934;28;20214;-58
2022/06/28 05:28:48;;;;;;;1.65;1.52;;;;;;;14.36;81.83;99213.41;4128485;28;20225;-58
2022/06/28 05:30:50;;;;;;;1.73;1.60;;;;;;;14.38;82.66;99212.03;4123669;28;20224;-59
2022/06/28 05:32:52;;;;;;;1.73;1.40;;;;;;;14.52;81.62;99206.97;4144746;28;20765;-58
2022/06/28 05:34:54;;;;;;;1.67;1.55;;;;;;;14.58;81.50;99216.97;4142952;28;20210;-59
2022/06/28 05:36:58;;;;;;;1.83;1.23;;;;;;;14.67;81.57;99209.91;4142585;28;20276;-58
2022/06/28 05:39:00;;;;;;;2.38;1.30;;;;;;;14.75;80.89;99204.75;4144246;28;20450;-58
2022/06/28 05:41:02;;;;;;;4.47;3.17;;;;;;;14.84;82.65;99211.44;4146577;28;20236;-59
2022/06/28 05:43:04;;;;;;;4.53;1.92;;;;;;;14.94;82.79;99216.22;4141558;28;20236;-58
2022/06/28 05:45:06;;;;;;;3.08;2.00;;;;;;;15.10;82.18;99207.84;4137705;28;20288;-59
2022/06/28 05:47:10;;;;;;;2.35;1.63;;;;;;;15.24;81.80;99211.81;4142319;28;20210;-59
2022/06/28 05:49:12;;;;;;;4.07;1.75;;;;;;;15.48;82.10;99210.41;4142957;28;20225;-58
2022/06/28 05:51:14;;;;;;;2.15;1.40;;;;;;;15.64;80.71;99206.66;4144355;28;20209;-58
2022/06/28 05:53:16;;;;;;;10.45;1.90;;;;;;;15.78;79.85;99207.03;4159920;28;20244;-59
2022/06/28 05:55:18;;;;;;;2.63;1.75;;;;;;;15.68;81.22;99199.50;4142689;28;20204;-59
2022/06/28 05:57:20;;;;;;;6.70;1.60;;;;;;;15.86;80.61;99210.13;4145197;28;20233;-59
2022/06/28 05:59:25;;;;;;;2.42;1.80;;;;;;;15.74;79.44;99209.50;4142692;28;20770;-58
2022/06/28 06:01:27;;;;;;;2.00;1.55;;;;;;;16.01;79.38;99212.97;4142612;28;20229;-59
2022/06/28 06:03:29;;;;;;;5.15;1.63;;;;;;;16.18;79.61;99212.78;4143356;28;20658;-59
2022/06/28 06:05:31;;;;;;;3.55;1.67;;;;;;;16.44;78.66;99212.63;4143727;28;20209;-59
2022/06/28 06:07:33;;;;;;;2.50;1.55;;;;;;;16.66;77.63;99212.44;4124051;28;20633;-60
2022/06/28 06:09:36;;;;;;;1.83;1.73;;;;;;;16.73;77.75;99205.56;4143622;28;20221;-58
2022/06/28 06:11:38;;;;;;;2.40;1.27;;;;;;;16.80;77.03;99211.66;4139376;28;20209;-60
2022/06/28 06:13:41;;;;;;;2.55;1.30;;;;;;;17.05;76.48;99206.16;4143363;28;20224;-58
2022/06/28 06:15:43;;;;;;;2.03;1.33;;;;;;;17.11;76.24;99207.84;4143517;28;20201;-58
2022/06/28 06:17:45;;;;;;;5.15;1.58;;;;;;;17.08;76.68;99213.91;4139413;28;20237;-58
2022/06/28 06:19:47;;;;;;;1.77;1.30;;;;;;;17.03;76.66;99211.13;4139386;28;20716;-58
2022/06/28 06:21:49;;;;;;;1.58;1.15;;;;;;;17.35;76.50;99209.78;4141796;28;20688;-58
2022/06/28 06:23:50;;;;;;;1.15;1.08;;;;;;;17.54;76.05;99197.06;4138887;28;20224;-58
2022/06/28 06:25:56;;;;;;;1.13;1.00;;;;;;;17.07;76.22;99201.19;4139544;28;20210;-59
2022/06/28 06:27:57;;;;;;;2.65;1.33;;;;;;;17.51;76.13;99199.56;4142112;28;20255;-58
2022/06/28 06:29:59;;;;;;;1.38;1.25;;;;;;;17.55;75.95;99192.34;4139181;28;20209;-59
2022/06/28 06:32:01;;;;;;;3.28;1.52;;;;;;;17.68;75.53;99200.09;4120299;28;20277;-59
2022/06/28 06:34:04;;;;;;;1.92;1.17;;;;;;;17.87;75.61;99196.47;4132363;28;20259;-58
2022/06/28 06:36:05;;;;;;;4.47;1.60;;;;;;;18.01;75.10;99203.06;4144199;28;20696;-59
2022/06/28 06:38:10;;;;;;;5.90;1.48;;;;;;;18.14;75.95;99196.09;4142793;28;20324;-59
2022/06/28 06:40:12;;;;;;;2.65;1.33;;;;;;;18.25;75.29;99200.50;4159745;28;20251;-59
2022/06/28 06:42:14;;;;;;;4.28;1.55;;;;;;;18.31;74.14;99202.19;4141977;28;20209;-60
2022/06/28 06:44:16;;;;;;;2.95;1.58;;;;;;;18.28;74.09;99202.69;4140051;28;20299;-60
2022/06/28 06:46:18;;;;;;;1.77;1.67;;;;;;;18.30;73.46;99200.47;4136073;28;20248;-59
2022/06/28 06:48:24;;;;;;;6.60;1.42;;;;;;;18.38;74.13;99199.94;4142260;28;20275;-60
2022/06/28 06:50:26;;;;;;;3.10;2.25;;;;;;;18.54;73.57;99195.97;4118798;28;20214;-58
2022/06/28 06:52:28;;;;;;;2.75;1.58;;;;;;;18.65;73.54;99200.34;4139007;28;20201;-59
2022/06/28 06:54:30;;;;;;;1.80;1.70;;;;;;;18.84;72.39;99193.03;4138497;28;20218;-58
2022/06/28 06:56:32;;;;;;;3.83;1.42;;;;;;;18.97;72.26;99186.84;4139374;28;20236;-61
2022/06/28 06:58:34;;;;;;;2.35;1.45;;;;;;;18.98;72.24;99188.50;4141908;28;20711;-58
2022/06/28 07:00:36;;;;;;;2.78;1.60;;;;;;;19.17;70.87;99195.03;4141380;28;20205;-58
2022/06/28 07:02:42;;;;;;;1.45;1.13;;;;;;;18.96;69.37;99187.94;4137920;28;20685;-58
2022/06/28 07:04:45;;;;;;;1.23;0.88;;;;;;;19.16;69.66;99185.03;4135110;28;20206;-59
2022/06/28 07:06:47;;;;;;;2.47;0.80;;;;;;;19.20;67.94;99184.22;4133630;28;20211;-58
2022/06/28 07:08:49;;;;;;;4.55;1.05;;;;;;;19.37;67.65;99183.81;4142802;28;20283;-58
2022/06/28 07:10:51;;;;;;;1.67;0.95;;;;;;;19.20;64.12;99178.66;4140428;28;20213;-58
2022/06/28 07:12:53;;;;;;;1.80;1.27;;;;;;;19.20;63.93;99177.81;4136207;28;20209;-58
2022/06/28 07:14:54;;;;;;;1.10;0.90;;;;;;;19.46;63.68;99182.03;4155495;28;20220;-58
2022/06/28 07:16:56;;;;;;;1.63;0.80;;;;;;;19.36;63.14;99174.63;4133413;28;20489;-58
2022/06/28 07:18:58;;;;;;;0.90;0.82;;;;;;;19.21;64.12;99174.75;4135599;28;20247;-58
2022/06/28 07:21:03;;;;;;;1.15;0.82;;;;;;;19.56;62.84;99181.94;4134071;28;20264;-58
2022/06/28 07:23:05;;;;;;;1.55;0.90;;;;;;;19.44;61.05;99170.41;4134080;28;20205;-58
2022/06/28 07:25:07;;;;;;;2.83;0.95;;;;;;;19.48;60.72;99174.25;4151709;28;20205;-59
2022/06/28 07:27:09;;;;;;;3.83;1.00;;;;;;;19.73;60.76;99180.41;4136334;28;20216;-59
2022/06/28 07:29:13;;;;;;;1.42;0.73;;;;;;;19.90;61.51;99177.19;4136395;28;20230;-59
2022/06/28 07:31:15;;;;;;;2.03;1.10;;;;;;;19.81;60.22;99173.38;4135357;28;20209;-59
2022/06/28 07:33:17;;;;;;;1.42;1.00;;;;;;;19.85;61.31;99171.66;4135611;28;20284;-59
2022/06/28 07:35:24;;;;;;;1.65;0.90;;;;;;;19.75;62.15;99160.63;4131851;28;20584;-59
2022/06/28 07:37:26;;;;;;;0.88;0.70;;;;;;;20.16;60.63;99171.06;4156012;28;20231;-59
2022/06/28 07:39:30;;;;;;;5.07;1.00;;;;;;;20.06;60.27;99170.34;4140796;28;20229;-58
2022/06/28 07:41:33;;;;;;;1.73;0.77;;;;;;;20.24;61.84;99166.81;4125965;28;20214;-58
2022/06/28 07:43:35;;;;;;;3.10;1.05;;;;;;;20.41;61.87;99172.69;4142675;28;20212;-59
2022/06/28 07:45:39;;;;;;;2.65;0.80;;;;;;;20.64;60.42;99177.41;4141264;28;20271;-59
2022/06/28 07:47:47;;;;;;;1.38;1.15;;;;;;;20.52;59.24;99169.47;4138278;28;20204;-59
2022/06/28 07:54:29;;;;;;;1.13;0.77;;;;;;;20.48;57.19;99167.59;4137708;28;20214;-59
2022/06/28 07:56:31;;;;;;;0.80;0.60;;;;;;;20.80;57.80;99167.69;4137117;28;21232;-59
2022/06/28 07:58:33;;;;;;;1.85;0.80;;;;;;;20.79;58.72;99163.25;4138086;28;20598;-59
2022/06/28 08:00:35;;;;;;;4.95;0.90;;;;;;;20.89;57.11;99157.56;4135207;28;20213;-59
2022/06/28 08:02:37;;;;;;;1.95;0.90;;;;;;;20.69;54.59;99157.84;4133357;28;20287;-59
2022/06/28 08:04:39;;;;;;;2.00;0.77;;;;;;;21.05;55.31;99161.78;4138909;28;20304;-58
2022/06/28 08:06:43;;;;;;;1.75;0.98;;;;;;;20.99;52.59;99155.47;4140615;28;20768;-59
2022/06/28 08:08:44;;;;;;;2.53;0.80;;;;;;;21.09;51.88;99146.13;4123660;28;20345;-58
2022/06/28 08:10:46;;;;;;;1.13;0.90;;;;;;;20.83;52.74;99147.59;4135860;28;20209;-58
2022/06/28 08:12:49;;;;;;;1.17;0.88;;;;;;;20.97;53.65;99159.69;4138133;28;20209;-58
2022/06/28 08:14:50;;;;;;;2.25;1.38;;;;;;;21.12;54.51;99151.91;4141292;28;20209;-58
2022/06/28 08:16:52;;;;;;;0.82;0.80;;;;;;;20.76;52.93;99149.94;4137325;28;20213;-58
2022/06/28 08:18:54;;;;;;;0.95;0.90;;;;;;;20.93;55.62;99153.06;4133132;28;20791;-58
2022/06/28 08:20:56;;;;;;;1.05;0.70;;;;;;;21.31;52.05;99140.75;4133079;28;20205;-58
2022/06/28 08:22:58;;;;;;;0.68;0.68;;;;;;;21.28;50.99;99144.97;4133191;28;20290;-57
2022/06/28 08:24:59;;;;;;;1.08;0.77;;;;;;;21.43;52.58;99146.69;4133317;28;20696;-58
2022/06/28 08:27:01;;;;;;;1.80;0.98;;;;;;;21.45;50.94;99138.84;4127960;28;20216;-58
2022/06/28 08:29:03;;;;;;;0.95;0.60;;;;;;;21.57;49.84;99139.19;4137514;28;20237;-58
2022/06/28 08:31:05;;;;;;;1.27;1.10;;;;;;;21.97;51.08;99146.81;4136785;28;20204;-59
2022/06/28 08:33:07;;;;;;;1.08;0.80;;;;;;;22.08;51.92;99135.16;4136068;28;20209;-58
2022/06/28 08:35:09;;;;;;;2.85;1.00;;;;;;;22.34;50.57;99141.03;4136643;28;20299;-59
2022/06/28 08:37:11;;;;;;;5.88;1.42;;;;;;;22.36;51.17;99138.75;4138974;28;20217;-58
2022/06/28 08:39:18;;;;;;;2.28;1.05;;;;;;;;;;4137405;28;20274;-58
2022/06/28 08:41:21;;;;;;;5.70;1.10;;;;;;;22.24;49.30;99138.47;4142694;28;20211;-59
2022/06/28 08:43:23;;;;;;;2.53;1.10;;;;;;;22.27;49.12;99135.88;4138409;28;20219;-59
2022/06/28 08:45:28;;;;;;;5.40;1.95;;;;;;;22.44;47.63;99138.88;4139905;28;20294;-59
2022/06/28 08:47:33;;;;;;;1.45;1.00;;;;;;;22.07;48.14;99135.44;4136167;28;20619;-59
2022/06/28 08:49:41;;;;;;;4.45;1.02;;;;;;;22.20;50.59;99135.47;4137566;28;20774;-60
2022/06/28 08:51:43;;;;;;;3.30;0.98;;;;;;;22.45;47.80;99136.94;4139321;28;21123;-59
2022/06/28 08:53:47;;;;;;;2.63;1.08;;;;;;;22.03;47.63;99123.28;4124773;28;20210;-59
2022/06/28 08:55:50;;;;;;;2.05;1.02;;;;;;;22.19;47.73;99121.81;4139611;28;20244;-57
2022/06/28 08:57:53;;;;;;;1.08;0.88;;;;;;;22.41;47.22;99124.69;4137826;28;20272;-58
2022/06/28 08:59:55;;;;;;;3.72;0.80;;;;;;;22.71;47.32;99118.47;4156910;28;20220;-59
2022/06/28 09:01:57;;;;;;;7.30;1.42;;;;;;;22.81;47.25;99121.84;4124579;28;20209;-59
2022/06/28 09:04:00;;;;;;;4.25;0.90;;;;;;;22.97;46.55;99125.13;4139916;28;20216;-59
2022/06/28 09:06:03;;;;;;;1.58;0.75;;;;;;;22.75;45.79;99113.91;4140701;28;20201;-59
2022/06/28 09:08:05;;;;;;;1.08;0.70;;;;;;;22.66;45.06;99110.22;4125393;28;20229;-59
2022/06/28 09:10:08;;;;;;;1.17;0.60;;;;;;;22.40;44.97;99103.50;4134762;28;20829;-59
2022/06/28 09:12:33;;;;;;;0.85;0.73;;;;;;;22.28;46.72;99098.47;4138545;28;20210;-59
2022/06/28 09:14:35;;;;;;;1.92;0.60;;;;;;;22.36;46.40;99099.69;4136768;28;20206;-59
2022/06/28 09:16:40;;;;;;;1.73;0.68;;;;;;;22.29;47.47;99090.91;4135751;28;20201;-59
2022/06/28 09:18:45;;;;;;;1.77;0.75;;;;;;;22.73;46.25;99088.28;4144442;28;20232;-59
2022/06/28 09:20:55;;;;;;;2.63;0.80;;;;;;;23.02;48.08;99085.88;4139332;28;20755;-59
2022/06/28 09:22:57;;;;;;;1.60;1.00;;;;;;;22.38;47.65;99084.28;4141073;28;20226;-58
2022/06/28 09:24:59;;;;;;;1.55;0.70;;;;;;;22.69;48.90;99087.25;4157689;22;20235;-56
2022/06/28 09:27:06;;;;;;;1.58;0.70;;;;;;;22.96;48.71;99079.59;4141928;28;20291;-56
2022/06/28 09:29:14;;;;;;;1.60;0.60;;;;;;;23.51;49.06;99072.59;4138319;28;20705;-57
2022/06/28 09:31:26;;;;;;;1.73;0.80;;;;;;;23.20;47.25;99074.56;4137530;28;20232;-56
2022/06/28 09:33:28;;;;;;;1.20;0.55;;;;;;;22.36;46.72;99071.78;4126189;28;20296;-55
2022/06/28 09:35:30;;;;;;;1.17;0.80;;;;;;;22.36;48.38;99066.22;4138926;28;20683;-57
2022/06/28 09:37:42;;;;;;;1.40;0.82;;;;;;;22.75;48.36;99072.03;4131836;28;20215;-55
2022/06/28 09:39:47;;;;;;;0.90;0.70;;;;;;;23.40;49.69;99070.41;4139830;28;20229;-57
2022/06/28 09:41:52;;;;;;;1.45;0.73;;;;;;;23.76;49.87;99071.13;4129460;28;20264;-58
2022/06/28 09:44:15;;;;;;;1.27;0.70;;;;;;;24.05;47.09;99064.66;4139635;28;20205;-57
2022/06/28 09:46:17;;;;;;;1.50;0.68;;;;;;;24.03;46.24;99069.78;4139938;28;20209;-55
2022/06/28 09:48:20;;;;;;;1.90;1.27;;;;;;;23.50;45.53;99058.97;4138995;28;20240;-57
2022/06/28 09:50:25;;;;;;;661.38;66.03;;;;;;;23.57;45.98;99054.56;4141083;28;20229;-56
2022/06/28 09:52:29;;;;;;;72.68;38.70;;;;;;;23.81;45.89;99049.41;4137151;28;20271;-56